Top 250   24 GHz   UTC   Spotter   Comment  
S55ZMS/B   24048040.0   28 May 21:11   S51ZO   JN86CR 599
S55ZMS/B   24048045.0   28 May 21:11   S51ZO   JN86CR 599
HG2BSC/B   24048850.0   28 May 21:11   S51ZO   JN87TB 579 T-18C
OE2JOM   24048100.0   28 May 11:14   OE5VRL   122km via Refl. JN67MO84
F6ACA/P   24048220.0   28 May 08:54   F6DKW   JN18CS<TR>JN18NU Strong
S55ZMS/B   24048040.0   27 May 20:17   S51ZO   jn86cr 599
S55ZMS/B   24048045.0   27 May 20:17   S51ZO   jn86cr 599
HG2BSC/B   24048850.0   27 May 20:17   S51ZO   jn87tb 589 t-18cI
DL4SBK/P   24048100.0   27 May 09:22   DL7QY   JN57GN<Tr>JN59BD 181km tnx
S55ZMS/B   24048040.0   26 May 18:30   S51ZO   jn86CR 599
S55ZMS/B   24048045.0   26 May 18:30   S51ZO   jn86CR 599
HG2BSC/B   24048850.0   26 May 18:29   S51ZO   jn87tb 579 t-17cI
S55ZMS/B   24048040.0   26 May 17:23   S51ZO   JN86CR 599
S55ZMS/B   24048045.0   26 May 17:23   S51ZO   JN86CR 599
GB3SEE   24048960.0   25 May 22:46   G4BAO   JO02CG<TR>IO91VG correct locator
GB3SEE   24048960.0   25 May 22:42   G4BAO   <tr>-16 JT4G
HG8BSD/B   24048903.2   23 May 14:08   HA8MV   599 kn06ln25fv
HG8BSD/B   24048900.0   23 May 14:08   HA8MV   599 kn06ln25fv
HG6BSA/B   24048190.0   23 May 14:07   HA8MV   599 jn97wv99xu
HG6BSA/B   24048188.3   23 May 14:07   HA8MV   599 jn97wv99xu
VP2ETE   24000000.0   22 May 21:31   EA1HDB  
RD3BA   24048100.0   22 May 17:52   RN3DKQ   599/579 tnx qso!
S55ZMS/B   24048040.0   22 May 04:06   S51ZO   JN86CR 599
S55ZMS/B   24048045.0   22 May 04:06   S51ZO   JN86CR 599
HG2BSC/B   24048850.0   22 May 04:06   S51ZO   JN87TB 599 T-12Ci
S55ZMS/B   24048040.0   20 May 18:55   S51ZO   JN86CR 599
S55ZMS/B   24048045.0   20 May 18:55   S51ZO   JN86CR 599
S55ZMS/B   24048040.0   20 May 00:50   S51ZO   JN86CR 599
S55ZMS/B   24048045.0   20 May 00:50   S51ZO   JN86CR 599
HG2BSC/B   24048850.0   20 May 00:50   S51ZO   JN87TB 589 T-19Ci
DB0RDH/B   24048857.0   19 May 16:00   OE5VRL   53 backscatter SCP JN68EW
DB0RDH/B   24048860.0   19 May 16:00   OE5VRL   53 backscatter SCP JN68EW
IW0REF/B   24048910.0   18 May 13:14   I5CTE   jn62hj<tr>jn63ag loud
S55ZMS/B   24048040.0   16 May 18:33   S51ZO   JN86CR 599
S55ZMS/B   24048045.0   16 May 18:33   S51ZO   JN86CR 599
HG2BSC/B   24048850.0   16 May 18:33   S51ZO   JN87TB 579 T-18Ci
HG2BSC/B   24048850.0   14 May 18:32   S51ZO   JN87TB 589 T-19 Ci
S55ZMS/B   24048040.0   14 May 16:13   S51ZO   JN86cr 599
S55ZMS/B   24048045.0   14 May 16:13   S51ZO   JN86cr 599
S55ZMS/B   24048040.0   12 May 19:04   S51ZO   Jn86CR 599
S55ZMS/B   24048045.0   12 May 19:04   S51ZO   Jn86CR 599
HG2BSC/B   24048850.0   12 May 19:03   S51ZO   JN87TB 569 T-17Ci
HG6BSA/B   24048190.0   12 May 14:02   HA8MV   529 jn97wv99xu
HG6BSA/B   24048187.6   12 May 14:02   HA8MV   529 jn97wv99xu
HG8BSD/B   24048900.0   12 May 13:54   HA8MV   kn06ln25fv FRQ+- temp.
HG8BSD/B   24048895.3   12 May 13:54   HA8MV   kn06ln25fv FRQ+- temp.
F6DPH/P   24048150.0   09 May 14:21   F5BUU   in95we<tr>JN03PO new one !
S55ZMS/B   24048040.0   07 May 05:13   S51ZO   JN86cr 599
S55ZMS/B   24048045.0   07 May 05:13   S51ZO   JN86cr 599
HG2BSC/B   24048850.0   07 May 05:13   S51ZO   JN87TB 569 T-13Ci
HG2BSC/B   24048850.0   07 May 01:48   S51ZO   JN87TB 579 T-12Ci
HG2BSC/B   24048850.0   06 May 20:38   S51ZO   JN87TB 589 T-15Ci
HG4BCS   24048920.0   06 May 18:12   HG5ED  
HG2BSC/B   24048850.0   06 May 17:43   S51ZO   JN87TB 449
9A1Z   24048100.0   06 May 17:32   S51ZO   JN86DL/JN86DR 59
HG5ED/P   24048100.0   06 May 16:28   S51ZO   Jn87TB/JN86DR 599 tnx Ernie
HA2D   24048100.0   06 May 16:22   S51ZO   Jn87TB/JN86dr 599
HA2ML/P   24048100.0   06 May 16:22   S51ZO   JN87TB /JN86DR 599 TNX
OE4WOG/P   24048100.0   06 May 15:23   S51ZO   Jn77WM/JN86DR 59
HG8BSD/B   24048900.0   06 May 13:17   HA8MV   599 kn06ln25fv 37km.
HG8BSD/B   24048896.7   06 May 13:17   HA8MV   599 kn06ln25fv 37km.
S55ZMS/B   24048040.0   06 May 13:11   S51ZO   JN86cr 599
S55ZMS/B   24048045.0   06 May 13:11   S51ZO   JN86cr 599
HG6BSA/B   24048190.0   06 May 13:09   HA8MV   599+ jn97wv99xu 134km.
HG6BSA/B   24048187.8   06 May 13:09   HA8MV   599+ jn97wv99xu 134km.
KH7XS   24096000.0   06 May 04:41   JM1CMA   TNX QSO
IW0REF/B   24048910.0   05 May 16:33   I5CTE   Jn53xg<tr>jn62hk loud at 105 kms.
HB9G/B   24048920.0   05 May 09:43   HB9AMH   JN36BK <TR>15dB anl
HB9G/B   24048922.0   05 May 09:43   HB9AMH   JN36BK <TR>15dB anl
HG2BSC/B   24048850.0   04 May 21:15   S51ZO   JN87TB 579 T-13Ci
S55ZMS/B   24048040.0   04 May 18:25   S51ZO   JN86cr 56S
S55ZMS/B   24048045.0   04 May 18:25   S51ZO   JN86cr 56S
HG2BSC/B   24048850.0   04 May 18:18   S51ZO   JN87TB 589 T-12 Ci
OK0ET/B   24048790.0   04 May 15:32   OK1EM   JO70CN - JO70DB 56 km 519
LX0CDF/B   24048190.0   04 May 15:27   DH1VY   sri qrg
LX0CDF/B   24048187.0   04 May 15:27   DH1VY   sri qrg
F1ZSE/B   24048760.0   04 May 15:22   F5BUU   jn02tw<tr>JN03PO 549
F1ZSE/B   24048759.0   04 May 15:22   F5BUU   jn02tw<tr>JN03PO 549
S55ZMS/B   24048040.0   02 May 20:35   S51ZO   JN86CR 599
S55ZMS/B   24048045.0   02 May 20:35   S51ZO   JN86CR 599
HG2BSC/B   24048850.0   02 May 19:12   S51ZO   JN87TB 579 T13Ci
S55ZMS/B   24048040.0   01 May 23:26   S51ZO   jn86cr 599
S55ZMS/B   24048045.0   01 May 23:26   S51ZO   jn86cr 599
S55ZMS/B   24048040.0   01 May 18:28   S51ZO   JN86CR 599
S55ZMS/B   24048045.0   01 May 18:28   S51ZO   JN86CR 599
HG2BSC/B   24048850.0   01 May 18:27   S51ZO   JN87TB 579 T-13 Ci
M0DTS   24048100.0   30 Apr 17:06   G4FVP   IO94FM<TR>IO94IL 59<>59 25km
M0DTS/B   24048780.0   30 Apr 17:05   G4FVP   IO94FM<TR>IO94IL de G4FVP/P
M0DTS/B   24048785.0   30 Apr 17:05   G4FVP   IO94FM<TR>IO94IL de G4FVP/P
G4FVP/P   24048100.0   30 Apr 14:58   M0DTS   59+ IO94IL<>IO94DO
G4FVP/P   24048100.0   30 Apr 14:57   M0DTS   59+ FM/SSB
HB9G/B   24048922.0   29 Apr 10:44   HB9AMH   JN36BK<TR>20dB anl
HB9G/B   24048920.0   29 Apr 10:44   HB9AMH   JN36BK<TR>20dB anl
F6FGI   24048150.0   29 Apr 10:19   HB9AMH   JN27XF 56 in jn37qd via MT.BLANC
A43ICT   24207000.0   27 Apr 15:04   IU1BLG   speial call swl
HB9BCD   24048100.0   25 Apr 20:34   I1KFH   JN45FG -> JN45LV TNX CW QSO
OZ1FF   24048230.0   25 Apr 18:31   OZ9PP   Tks QSO-188 km
OZ1CTZ   24048230.0   25 Apr 18:29   OZ9PP   Tks QSO
HG8BSD/B   24048900.0   25 Apr 16:30   HA8MV   599+ KN06LN25FV
HG8BSD/B   24048896.0   25 Apr 16:30   HA8MV   599+ KN06LN25FV
HG6BSA/B   24048184.0   25 Apr 16:28   HA8MV   SRI corr. call.
HG6BSA/B   24048180.0   25 Apr 16:28   HA8MV   SRI corr. call.
HG8BSD/B   24048180.0   25 Apr 16:27   HA8MV   frq GO up. :-) 599+
HG8BSD/B   24048184.0   25 Apr 16:27   HA8MV   frq GO up. :-) 599+
OZ5SHF   24048900.0   25 Apr 14:46   OZ1FF   51S jo45vx>rs>jo45bo
F5AQC/P   24048100.0   24 Apr 17:39   F6HTJ   JN12mr<tr>JN12kq
HG2BSC/B   24048850.0   23 Apr 18:08   S51ZO   JN87TB 579 T-5 Ci
9A5AA/B   24048900.0   23 Apr 17:49   S51ZO   JN75XV 449
9A5AA/B   24048905.0   23 Apr 17:49   S51ZO   JN75XV 449
S55ZMS/B   24048040.0   23 Apr 17:47   S51ZO   JN86CR 599
S55ZMS/B   24048045.0   23 Apr 17:47   S51ZO   JN86CR 599
HG2BSC/B   24048850.0   23 Apr 17:37   S51ZO   JN87TB 569 T-6Ci
S55ZMS/B   24048040.0   21 Apr 18:17   S51ZO   JN86cr 599
S55ZMS/B   24048045.0   21 Apr 18:17   S51ZO   JN86cr 599
9A5AA/B   24048900.0   21 Apr 18:17   S51ZO   JN75XV 449
9A5AA/B   24048905.0   21 Apr 18:17   S51ZO   JN75XV 449
HG2BSC/B   24048850.0   21 Apr 18:09   S51ZO   JN87TB 579 T-5 Ci
HG8BSD/B   24048900.0   21 Apr 17:47   HA8MV   599+ kn06ln25fv
HG6BSA/B   24048177.4   21 Apr 17:46   HA8MV   599 jn97wv99xu frq. go UP.
HG6BSA/B   24048180.0   21 Apr 17:46   HA8MV   599 jn97wv99xu frq. go UP.
HG2BSC/B   24048850.0   21 Apr 17:02   S51ZO   JN87TB 569 T-6Ci
IW0REF/B   24048910.0   21 Apr 15:51   I5CTE   jn53xg<tr>jn62hk 599+,low RH
S55ZMS/B   24048040.0   21 Apr 15:10   S51ZO   JN86CR 599
S55ZMS/B   24048045.0   21 Apr 15:10   S51ZO   JN86CR 599
HG2BSC/B   24048850.0   21 Apr 15:05   S51ZO   JN87TB 559 T-7Ci
IK1YWB/B   24048370.0   18 Apr 21:49   I1KFH   559
I1KFH   24048100.0   18 Apr 21:18   IK2OFO   59+
OZ5SHF/B   24048900.0   18 Apr 13:51   OZ1FF   529 JO45VX>TR>JO45BO
9A4QV   24000000.0   17 Apr 09:20   IK4ADE   JN75cg M.Maggiore
I3ZVN/3   24048100.0   17 Apr 08:17   IK2OFO   JN45PB<TR>JN55NO
I3CLZ/3   24048100.0   17 Apr 08:15   IK2OFO   JN45PB<TR>JN55NO
OZ7IGY   24048930.0   16 Apr 17:47   OZ1CTZ   PI4 -22 dB Q=62 183 km RS
HG2BSC/B   24048850.0   16 Apr 17:18   S51ZO   JN87TB 569 T-7Ci
9A5AA/B   24048900.0   16 Apr 17:15   S51ZO   JN75XV 559
9A5AA/B   24048905.0   16 Apr 17:15   S51ZO   JN75XV 559
S55ZRS/B   24048040.0   16 Apr 17:15   S51ZO   Jn86CR 599
S55ZRS/B   24048045.0   16 Apr 17:15   S51ZO   Jn86CR 599
IW0REF/B   24048910.0   15 Apr 15:08   I5CTE   JN63<tr>jn62 loud at 105 kms
J5W   24235000.0   15 Apr 12:06   IZ5YHD   Now 7 up
S55ZMS/B   24048040.0   12 Apr 21:06   S51ZO   jn86cr 599++
S55ZMS/B   24048045.0   12 Apr 21:06   S51ZO   jn86cr 599++
HG2BSC/B   24048850.0   12 Apr 21:04   S51ZO   JN87TB 589 T-10 Ci
S55ZMS/B   24048040.0   12 Apr 19:28   S51ZO   JN86cr 599
S55ZMS/B   24048045.0   12 Apr 19:28   S51ZO   JN86cr 599
HG2BSC/B   24048850.0   12 Apr 19:28   S51ZO   JN87TB 579 T-10Ci
IW0REF/B   24048910.0   12 Apr 14:02   I5CTE   JN62HN<tr>JN63AG loud @ 95 kms -new bcn-
9A5AA/B   24048900.0   11 Apr 20:17   S51ZO   JN75XV 549
9A5AA/B   24048905.0   11 Apr 20:17   S51ZO   JN75XV 549
S55ZMS/B   24048040.0   11 Apr 20:06   S51ZO   JN86CR 599
S55ZMS/B   24048045.0   11 Apr 20:06   S51ZO   JN86CR 599
HG2BSC/B   24048850.0   11 Apr 20:05   S51ZO   JN87TB 579 6Ci
9A5AA/B   24048900.0   11 Apr 16:44   S51ZO   JN75XV 449
9A5AA/B   24048905.0   11 Apr 16:44   S51ZO   JN75XV 449
S55ZMS/B   24048040.0   11 Apr 16:42   S51ZO   JN86CR 599
S55ZMS/B   24048045.0   11 Apr 16:42   S51ZO   JN86CR 599
HG2BSC/B   24048850.0   11 Apr 16:39   S51ZO   JN87TB 559 T-8CI
IK1YWB/B   24048370.0   10 Apr 20:04   IK2OFO   59++ good cnd
IK1YWB/B   24048368.0   10 Apr 20:04   IK2OFO   59++ good cnd
S55ZMS/B   24048040.0   07 Apr 00:03   S51ZO   JN86cr 599
S55ZMS/B   24048045.0   07 Apr 00:03   S51ZO   JN86cr 599
HG2BSC/B   24048850.0   07 Apr 00:03   S51ZO   JN87TB 589 T-3 Ci
9A5AA/B   24048900.0   06 Apr 22:02   S51ZO   JN75XV 549
9A5AA/B   24048905.0   06 Apr 22:02   S51ZO   JN75XV 549
S55ZMS/B   24048040.0   06 Apr 22:01   S51ZO   jn86cr 599
S55ZMS/B   24048045.0   06 Apr 22:01   S51ZO   jn86cr 599
HG2BSC/B   24048850.0   06 Apr 21:59   S51ZO   JN87TB 579 T-4Ci
S55ZKP/B   24048220.0   05 Apr 16:16   9A4QV   55 in jn75bb QRB 53km
S55ZKP/B   24048221.0   05 Apr 16:16   9A4QV   55 in jn75bb QRB 53km
F1PYR/P   24048100.0   04 Apr 13:43   F1HNF   IN96VX-IN97XF 59+++ ONLY 32 KM
HG2BSC/B   24048850.0   02 Apr 23:19   S51ZO   JN87TB 599 T-18Ci
HG2BSC/B   24048850.0   02 Apr 19:17   S51ZO   JN87TB 569 T-18CI
9A5AA/B   24048900.0   02 Apr 17:09   S59GS   599+ JN75NP<TR>JN75XV
HG2BSC/B   24048850.0   02 Apr 15:02   S51ZO   JN87TB 449
S55ZMS/B   24048040.0   02 Apr 14:43   S51ZO   JN86CR 599+++
S55ZMS/B   24048045.0   02 Apr 14:43   S51ZO   JN86CR 599+++
HG2BSC/B   24048850.0   01 Apr 22:27   S51ZO   JN87TB 589 T-16Ci
S55ZMS/B   24048040.0   01 Apr 22:24   S51ZO   JN86CR 599
S55ZMS/B   24048045.0   01 Apr 22:24   S51ZO   JN86CR 599
9A5AA/B   24048900.0   01 Apr 22:24   S51ZO   JN75XV 559
9A5AA/B   24048905.0   01 Apr 22:24   S51ZO   JN75XV 559
CV5A   24185000.0   01 Apr 21:13   PY3BEG   isla Flores
S55ZMS/B   24048040.0   01 Apr 19:03   S51ZO   jn86cr 599
S55ZMS/B   24048045.0   01 Apr 19:03   S51ZO   jn86cr 599
HG2BSC/B   24048850.0   01 Apr 18:59   S51ZO   jn87tb 579 t-16cI
S55ZMS/B   24048040.0   30 Mar 19:36   S51ZO   Jn86CR 599
S55ZMS/B   24048045.0   30 Mar 19:36   S51ZO   Jn86CR 599
HG2BSC/B   24048850.0   30 Mar 19:36   S51ZO   Jn87TB 559 T-13Ci
F1BOC/P   24048110.0   30 Mar 13:56   F1HNF   IN97VF-IN96NT 59+++ BUT ONLY 6
F1BOC/P   24048106.0   30 Mar 13:56   F1HNF   IN97VF-IN96NT 59+++ BUT ONLY 66 KM
F5NXU/P   24048100.0   30 Mar 13:55   F1HNF   IN97VF-IN97PI 59+++ BUT ONLY 36 KM
F6APE   24048100.0   30 Mar 13:55   F1HNF   IN97VF-IN97PI 59+++ BUT ONLY 36 KM
S55ZMS/B   24048040.0   28 Mar 20:16   S51ZO   Jn86CR 599
S55ZMS/B   24048045.0   28 Mar 20:16   S51ZO   Jn86CR 599
HG2BSC/B   24048850.0   28 Mar 20:16   S51ZO   Jn87TB 589 T-14Ci
S55ZMS/B   24048040.0   28 Mar 17:44   S51ZO   JN86CR 599
S55ZMS/B   24048045.0   28 Mar 17:44   S51ZO   JN86CR 599
HG2BSC/B   24048850.0   28 Mar 17:44   S51ZO   JN87TB 569 T-13Ci
F6CBC   24048160.0   26 Mar 16:18   F2CT   IN93>IN94 180KM NICE
F6CBC   24048164.0   26 Mar 16:18   F2CT   IN93>IN94 180KM NICE
F6CBC   24048160.0   26 Mar 15:53   F2CT   IN93>IN94 100km nice
F6CBC   24048164.0   26 Mar 15:53   F2CT   IN93>IN94 100km nice
F1ZSE/B   24048758.0   26 Mar 15:31   F5BUU   jn02tw<tr>JN03PO 579
F1ZSE/B   24048760.0   26 Mar 15:31   F5BUU   jn02tw<tr>JN03PO 579
F6FAX/P   24048150.0   26 Mar 09:15   F6DWG   JN19AJ/JN18FL 106kms 54 nice t
S55ZMS/B   24048040.0   22 Mar 17:36   S51ZO   JN86cr 599
S55ZMS/B   24048045.0   22 Mar 17:36   S51ZO   JN86cr 599
OZ5SHF/B   24048900.0   21 Mar 11:16   OZ1FF   52S jo45vx>rs>jo45bo
S21ZED   24000000.0   19 Mar 07:32   EU7F   TRY 12m PSE PSE
9G5X   24098000.0   17 Mar 17:43   HA9RC   tnx up1
7Z1JA   24095000.0   17 Mar 10:32   UX7UN  
9A5AA/B   24048900.0   13 Mar 22:21   S51ZO   JN75XV 559
9A5AA/B   24048905.0   13 Mar 22:21   S51ZO   JN75XV 559
S55ZMS/B   24048040.0   13 Mar 22:12   S51ZO   JN86cr 599
S55ZMS/B   24048045.0   13 Mar 22:12   S51ZO   JN86cr 599
HG2BSC/B   24048850.0   13 Mar 22:12   S51ZO   JN87TB 599 T-5 Ci
S55ZMS/B   24048040.0   13 Mar 20:42   S51ZO   JN86cr 599
S55ZMS/B   24048045.0   13 Mar 20:42   S51ZO   JN86cr 599
HG2BSC/B   24048850.0   13 Mar 20:41   S51ZO   JN87TB 589 T-5Ci
S55ZMS/B   24048040.0   12 Mar 21:47   S51ZO   JN86cr 599
S55ZMS/B   24048045.0   12 Mar 21:47   S51ZO   JN86cr 599
HG2BSC/B   24048850.0   12 Mar 21:43   S51ZO   JN87TB 599 T-2Ci
S55ZMS/B   24048040.0   12 Mar 17:36   S51ZO   JN86cr 599
S55ZMS/B   24048045.0   12 Mar 17:36   S51ZO   JN86cr 599
HG2BSC/B   24048850.0   12 Mar 17:35   S51ZO   JN87TB 589 T-3CI
S55ZMS/B   24048040.0   11 Mar 22:26   S51ZO   JN86cr 599
S55ZMS/B   24048045.0   11 Mar 22:26   S51ZO   JN86cr 599
HG2BSC/B   24048850.0   11 Mar 22:26   S51ZO   JN87TB 599 T-2Ci
S55ZMS/B   24048040.0   11 Mar 17:21   S51ZO   JN86vr 599
S55ZMS/B   24048045.0   11 Mar 17:21   S51ZO   JN86vr 599
HG2BSC/B   24048850.0   11 Mar 17:21   S51ZO   JN87TB 579 T-4Ci
HG2BSC/B   24048850.0   07 Mar 23:40   S51ZO   JN87TB 559 T-2 Ci
S55ZMS/B   24048040.0   07 Mar 21:18   S51ZO   JN86cr 599
S55ZMS/B   24048045.0   07 Mar 21:18   S51ZO   JN86cr 599
IK8GJR   24000000.0   05 Mar 18:00   IK8GJR   only test
S5ZMS/B   24048040.0   05 Mar 14:15   S51ZO   JN86cr 599
S5ZMS/B   24048045.0   05 Mar 14:15   S51ZO   JN86cr 599
HG2BSC/B   24048850.0   05 Mar 14:14   S51ZO   JN87TB 559 T-5 c
9A5AA/B   24048900.0   05 Mar 14:10   S59GS   sorry,only test somethink,TNX
DK0PU   24048120.0   05 Mar 10:59   PA3AWJ   160km. Thanks for qso Ralf
S55ZMS/B   24048040.0   05 Mar 07:37   S51ZO   JN86cr 599
S55ZMS/B   24048045.0   05 Mar 07:37   S51ZO   JN86cr 599
HG2BSC/B   24048850.0   05 Mar 07:34   S51ZO   JN87TB 569 T-7Ci
S55ZMS/B   24048040.0   05 Mar 01:55   S51ZO   JN86cr 599
S55ZMS/B   24048045.0   05 Mar 01:55   S51ZO   JN86cr 599
HG2BSC/B   24048850.0   05 Mar 01:52   S51ZO   jn87tb 579 9Ci
PE1MMP   24048130.0   04 Mar 20:21   PA3AWJ   87km easy ssb
HA2D   24048100.0   04 Mar 18:21   S51ZO   JN86dr/JN87TB 59 108km tnx
9A5AA/B   24048900.0   04 Mar 18:09   S59GS   599+ JN75NP<TR>JN75XV
HG2BSC/B   24048850.0   04 Mar 18:00   S51ZO   JN87tb 569 T-11CI
9A1Z   24048080.0   04 Mar 16:37   S51ZO   JN86dr/JN86DL 59